Time;durP1;ratioP1;P1;durP2;ratioP2;P2;SDS_P1;SDS_P2;PMS_P1;PMS_P2;Temp;Humidity;BMP_temperature;BMP_pressure;BME280_temperature;BME280_humidity;BME280_pressure;Samples;Min_cycle;Max_cycle;Signal;HPM_P1;HPM_P2
2023/03/09 00:01:30;;;;;;;7.85;4.25;;;1.50;99.90;;;;;;5070395;28;20048;-72
2023/03/09 00:03:56;;;;;;;8.75;4.95;;;1.40;99.90;;;;;;5056129;28;20041;-73
2023/03/09 00:06:22;;;;;;;7.82;4.82;;;1.40;99.90;;;;;;5065299;28;20045;-73
2023/03/09 00:08:48;;;;;;;7.00;4.63;;;1.50;99.90;;;;;;5053877;28;20036;-72
2023/03/09 00:11:16;;;;;;;7.75;4.90;;;1.40;99.90;;;;;;5074056;28;20070;-74
2023/03/09 00:13:43;;;;;;;7.47;4.90;;;1.60;99.90;;;;;;5063438;28;20029;-73
2023/03/09 00:16:16;;;;;;;8.35;5.00;;;1.30;99.90;;;;;;5061461;28;20052;-74
2023/03/09 00:18:42;;;;;;;8.48;5.03;;;1.30;99.90;;;;;;5058815;28;20048;-74
2023/03/09 00:21:14;;;;;;;9.07;5.30;;;1.30;99.90;;;;;;5060872;28;20047;-74
2023/03/09 00:23:41;;;;;;;8.38;4.60;;;1.30;99.90;;;;;;5057964;28;20108;-73
2023/03/09 00:26:09;;;;;;;7.60;4.97;;;1.20;99.90;;;;;;5056159;28;20096;-75
2023/03/09 00:28:34;;;;;;;8.50;4.90;;;1.20;99.90;;;;;;5037988;28;20049;-74
2023/03/09 00:31:05;;;;;;;8.65;5.15;;;1.30;99.90;;;;;;5060047;28;20127;-73
2023/03/09 00:33:31;;;;;;;8.68;5.13;;;1.20;99.90;;;;;;5064809;28;20049;-76
2023/03/09 00:35:58;;;;;;;8.40;5.22;;;1.70;99.90;;;;;;5053857;28;20499;-75
2023/03/09 00:38:24;;;;;;;9.10;5.60;;;1.10;99.90;;;;;;5071281;28;20108;-74
2023/03/09 00:40:50;;;;;;;8.23;5.07;;;1.10;99.90;;;;;;5060286;28;20048;-73
2023/03/09 00:43:16;;;;;;;9.27;5.20;;;1.10;99.90;;;;;;5061843;28;20116;-74
2023/03/09 00:45:42;;;;;;;6.80;4.88;;;1.40;99.90;;;;;;5063167;28;20044;-74
2023/03/09 00:48:08;;;;;;;7.30;4.72;;;1.10;99.90;;;;;;5046243;28;20048;-75
2023/03/09 00:50:33;;;;;;;7.40;4.80;;;1.60;99.90;;;;;;5064689;28;20049;-75
2023/03/09 00:52:59;;;;;;;8.65;4.70;;;1.00;99.90;;;;;;5066013;28;20051;-72
2023/03/09 00:55:25;;;;;;;7.22;4.90;;;1.10;99.90;;;;;;5060246;28;20053;-73
2023/03/09 00:57:50;;;;;;;9.30;5.03;;;1.10;99.90;;;;;;5067269;28;20048;-75
2023/03/09 01:00:16;;;;;;;8.02;4.82;;;1.00;99.90;;;;;;5071134;28;20048;-73
2023/03/09 01:02:42;;;;;;;9.77;4.68;;;1.00;99.90;;;;;;5066634;28;20110;-74
2023/03/09 01:05:09;;;;;;;8.13;4.85;;;1.00;99.90;;;;;;5043892;28;20489;-75
2023/03/09 01:07:35;;;;;;;9.27;5.22;;;0.90;99.90;;;;;;5061896;28;20073;-73
2023/03/09 01:10:02;;;;;;;9.15;4.88;;;1.00;99.90;;;;;;5072508;28;20044;-72
2023/03/09 01:12:28;;;;;;;9.50;5.70;;;1.00;99.90;;;;;;5056014;28;20033;-73
2023/03/09 01:14:55;;;;;;;10.18;5.03;;;1.20;99.90;;;;;;5068629;28;20059;-73
2023/03/09 01:17:22;;;;;;;8.93;4.90;;;1.00;99.90;;;;;;5068429;28;20427;-74
2023/03/09 01:19:47;;;;;;;8.18;4.88;;;1.40;99.90;;;;;;5054631;28;20049;-76
2023/03/09 01:22:13;;;;;;;8.32;4.57;;;1.10;99.90;;;;;;5063978;28;20048;-75
2023/03/09 01:24:39;;;;;;;8.07;4.90;;;0.90;99.90;;;;;;5050281;28;20743;-75
2023/03/09 01:27:06;;;;;;;7.90;4.78;;;0.90;99.90;;;;;;5053357;28;20076;-73
2023/03/09 01:29:32;;;;;;;7.03;4.60;;;0.90;99.90;;;;;;5068209;28;20052;-74
2023/03/09 01:31:57;;;;;;;8.13;5.18;;;1.20;99.90;;;;;;5074347;28;20059;-75
2023/03/09 01:34:23;;;;;;;8.98;5.72;;;0.80;99.90;;;;;;5072480;28;20040;-74
2023/03/09 01:36:49;;;;;;;9.75;5.15;;;0.80;99.90;;;;;;5056019;28;20068;-73
2023/03/09 01:39:15;;;;;;;8.52;5.13;;;0.80;99.90;;;;;;5051479;28;20053;-74
2023/03/09 01:41:41;;;;;;;7.82;5.05;;;0.80;99.90;;;;;;5079459;28;20055;-75
2023/03/09 01:44:11;;;;;;;6.90;4.53;;;1.10;99.90;;;;;;5059381;28;20068;-74
2023/03/09 01:46:48;;;;;;;8.40;4.70;;;1.00;99.90;;;;;;5070149;28;20048;-75
2023/03/09 01:49:40;;;;;;;7.20;4.80;;;0.70;99.90;;;;;;5057840;28;20036;-75
2023/03/09 01:52:15;;;;;;;6.97;4.53;;;0.70;99.90;;;;;;5084287;28;20092;-75
2023/03/09 01:55:06;;;;;;;8.65;4.88;;;0.70;99.90;;;;;;5075741;28;20115;-74
2023/03/09 01:57:34;;;;;;;7.47;4.65;;;0.80;99.90;;;;;;5077701;28;20056;-74
2023/03/09 02:00:19;;;;;;;8.60;5.30;;;0.70;99.90;;;;;;5056727;28;20053;-77
2023/03/09 02:03:09;;;;;;;8.75;5.40;;;0.70;99.90;;;;;;5071638;28;20049;-74
2023/03/09 02:06:08;;;;;;;7.78;5.43;;;0.70;99.90;;;;;;5073896;28;20164;-73
2023/03/09 02:08:34;;;;;;;8.10;4.63;;;0.60;99.90;;;;;;5081380;28;20055;-75
2023/03/09 02:11:07;;;;;;;8.55;4.70;;;0.60;99.90;;;;;;5066165;28;20084;-75
2023/03/09 02:13:40;;;;;;;7.20;4.45;;;0.60;99.90;;;;;;5067641;28;20059;-74
2023/03/09 02:16:06;;;;;;;9.73;5.13;;;0.80;99.90;;;;;;5056775;28;20049;-73
2023/03/09 02:18:32;;;;;;;6.65;4.10;;;0.60;99.90;;;;;;5060195;28;20041;-73
2023/03/09 02:21:20;;;;;;;7.07;4.30;;;0.70;99.90;;;;;;5077720;28;20096;-73
2023/03/09 02:24:03;;;;;;;9.52;4.88;;;0.70;99.90;;;;;;5063510;28;20147;-75
2023/03/09 02:26:53;;;;;;;9.07;4.53;;;0.70;99.90;;;;;;5054914;28;20080;-74
2023/03/09 02:29:19;;;;;;;8.65;5.50;;;0.70;99.90;;;;;;5068254;28;20063;-74
2023/03/09 02:31:45;;;;;;;8.70;5.28;;;0.70;99.90;;;;;;5059293;28;20467;-73
2023/03/09 02:34:11;;;;;;;7.97;4.85;;;0.70;99.90;;;;;;5069160;28;20055;-73
2023/03/09 02:36:37;;;;;;;7.20;4.72;;;0.70;99.90;;;;;;5058787;28;20122;-73
2023/03/09 02:39:14;;;;;;;9.65;5.43;;;0.70;99.90;;;;;;5071396;28;20578;-72
2023/03/09 02:41:39;;;;;;;9.50;5.13;;;0.70;99.90;;;;;;5057397;28;20052;-74
2023/03/09 02:44:06;;;;;;;7.30;4.70;;;0.80;99.90;;;;;;5056823;28;20057;-72
2023/03/09 02:46:31;;;;;;;8.90;5.53;;;0.80;99.90;;;;;;5055573;28;20052;-73
2023/03/09 02:48:57;;;;;;;8.18;5.15;;;0.70;99.90;;;;;;5057912;28;20040;-74
2023/03/09 02:51:23;;;;;;;10.45;6.15;;;0.80;99.90;;;;;;5067713;28;20051;-73
2023/03/09 02:53:48;;;;;;;9.05;5.32;;;0.80;99.90;;;;;;5073157;28;20116;-74
2023/03/09 02:56:14;;;;;;;10.05;5.80;;;0.70;99.90;;;;;;5050731;28;20112;-76
2023/03/09 02:58:40;;;;;;;10.43;5.70;;;0.70;99.90;;;;;;5076560;28;20044;-73
2023/03/09 03:01:05;;;;;;;11.60;5.75;;;0.80;99.90;;;;;;5064559;28;20037;-74
2023/03/09 03:03:31;;;;;;;11.00;6.43;;;0.70;99.90;;;;;;5057459;28;20076;-73
2023/03/09 03:05:58;;;;;;;9.80;5.53;;;0.70;99.90;;;;;;5042535;28;20132;-72
2023/03/09 03:08:24;;;;;;;10.73;6.10;;;0.70;99.90;;;;;;5074383;28;20037;-72
2023/03/09 03:10:49;;;;;;;10.50;5.95;;;0.80;99.90;;;;;;5065019;28;20040;-72
2023/03/09 03:13:15;;;;;;;8.13;5.25;;;0.80;99.90;;;;;;5044996;28;20112;-72
2023/03/09 03:15:41;;;;;;;10.43;6.15;;;1.00;99.90;;;;;;5055997;28;20048;-73
2023/03/09 03:18:07;;;;;;;12.23;6.78;;;0.80;99.90;;;;;;5050272;28;20140;-72
2023/03/09 03:20:32;;;;;;;10.88;5.80;;;0.90;99.90;;;;;;5043968;28;20041;-73
2023/03/09 03:22:58;;;;;;;9.52;5.97;;;0.80;99.90;;;;;;5055892;28;20057;-72
2023/03/09 03:25:24;;;;;;;11.00;6.20;;;0.80;99.90;;;;;;5059642;28;20055;-72
2023/03/09 03:27:49;;;;;;;10.77;6.28;;;0.80;99.90;;;;;;5072232;28;20044;-73
2023/03/09 03:30:15;;;;;;;10.05;5.43;;;0.80;99.90;;;;;;5071532;28;20055;-73
2023/03/09 03:32:41;;;;;;;11.27;5.38;;;0.80;99.90;;;;;;5072571;28;20060;-72
2023/03/09 03:35:07;;;;;;;9.90;5.70;;;0.90;99.90;;;;;;5075146;28;20033;-72
2023/03/09 03:37:33;;;;;;;9.80;6.03;;;0.80;99.90;;;;;;5071639;28;20045;-73
2023/03/09 03:39:59;;;;;;;10.63;6.88;;;0.80;99.90;;;;;;5065103;28;20055;-72
2023/03/09 03:42:25;;;;;;;10.15;5.95;;;0.90;99.90;;;;;;5060701;28;20076;-73
2023/03/09 03:44:50;;;;;;;10.52;6.03;;;0.90;99.90;;;;;;5070836;28;20049;-73
2023/03/09 03:47:16;;;;;;;12.43;6.47;;;1.00;99.90;;;;;;5054692;28;20040;-73
2023/03/09 03:49:42;;;;;;;8.43;5.55;;;0.90;99.90;;;;;;5055772;28;20037;-73
2023/03/09 03:52:09;;;;;;;11.70;6.03;;;0.90;99.90;;;;;;5053514;28;20037;-73
2023/03/09 03:54:35;;;;;;;11.63;6.85;;;0.90;99.90;;;;;;5056808;28;20558;-72
2023/03/09 03:57:01;;;;;;;9.43;6.20;;;0.90;99.90;;;;;;5053974;28;20053;-72
2023/03/09 03:59:27;;;;;;;10.65;6.72;;;0.80;99.90;;;;;;5067526;28;20059;-73
2023/03/09 04:01:52;;;;;;;10.20;6.28;;;0.90;99.90;;;;;;5041186;28;20068;-73
2023/03/09 04:04:18;;;;;;;9.02;5.20;;;0.90;99.90;;;;;;5061215;28;20045;-74
2023/03/09 04:06:44;;;;;;;10.13;6.20;;;0.80;99.90;;;;;;5061649;28;20135;-73
2023/03/09 04:09:10;;;;;;;10.20;6.10;;;0.90;99.90;;;;;;5066386;28;20033;-73
2023/03/09 04:11:36;;;;;;;9.23;5.70;;;0.80;99.90;;;;;;5055463;28;20079;-75
2023/03/09 04:14:01;;;;;;;9.85;5.75;;;1.20;99.90;;;;;;5068203;28;20048;-72
2023/03/09 04:16:27;;;;;;;9.18;5.22;;;0.80;99.90;;;;;;5063971;28;20465;-72
2023/03/09 04:18:53;;;;;;;11.60;6.07;;;0.80;99.90;;;;;;5076269;28;20048;-71
2023/03/09 04:21:19;;;;;;;9.27;5.38;;;0.80;99.90;;;;;;5070482;28;20135;-73
2023/03/09 04:23:47;;;;;;;10.23;5.82;;;0.80;99.90;;;;;;5071189;28;20048;-72
2023/03/09 04:26:12;;;;;;;8.98;5.25;;;0.80;99.90;;;;;;5054244;28;20075;-73
2023/03/09 04:28:38;;;;;;;10.07;5.78;;;0.80;99.90;;;;;;5038612;28;20148;-73
2023/03/09 04:31:04;;;;;;;9.98;5.82;;;0.90;99.90;;;;;;5055332;28;20068;-72
2023/03/09 04:33:29;;;;;;;9.43;5.50;;;0.90;99.90;;;;;;5058357;28;20079;-72
2023/03/09 04:35:55;;;;;;;10.27;5.97;;;0.80;99.90;;;;;;5058670;28;20052;-73
2023/03/09 04:38:21;;;;;;;9.07;5.80;;;0.90;99.90;;;;;;5059148;28;20112;-73
2023/03/09 04:40:46;;;;;;;10.63;5.32;;;0.80;99.90;;;;;;5058507;28;20547;-73
2023/03/09 04:43:12;;;;;;;8.57;5.47;;;0.80;99.90;;;;;;5063929;28;20607;-72
2023/03/09 04:45:38;;;;;;;8.73;5.63;;;0.80;99.90;;;;;;5068025;28;20058;-72
2023/03/09 04:48:04;;;;;;;8.90;5.40;;;0.80;99.90;;;;;;5070803;28;20045;-72
2023/03/09 04:50:29;;;;;;;8.70;5.25;;;0.80;99.90;;;;;;5063109;28;20063;-72
2023/03/09 04:52:55;;;;;;;9.23;6.03;;;0.90;99.90;;;;;;5063616;28;20049;-72
2023/03/09 04:55:21;;;;;;;8.88;5.32;;;0.90;99.90;;;;;;5059846;28;20059;-72
2023/03/09 04:57:47;;;;;;;8.95;5.03;;;0.90;99.90;;;;;;5055053;28;20040;-71
2023/03/09 05:00:13;;;;;;;9.52;5.72;;;0.90;99.90;;;;;;5063823;28;20048;-72
2023/03/09 05:02:39;;;;;;;9.70;6.13;;;0.90;99.90;;;;;;5061730;28;20634;-72
2023/03/09 05:05:06;;;;;;;8.75;5.55;;;1.00;99.90;;;;;;5062187;28;20037;-71
2023/03/09 05:07:32;;;;;;;9.35;5.85;;;0.80;99.90;;;;;;5077150;28;21036;-72
2023/03/09 05:09:58;;;;;;;9.80;6.03;;;1.10;99.90;;;;;;5071814;28;20041;-72
2023/03/09 05:12:30;;;;;;;8.88;5.50;;;0.80;99.90;;;;;;5060781;28;20076;-73
2023/03/09 05:15:00;;;;;;;9.18;5.25;;;0.80;99.90;;;;;;5063423;28;20067;-73
2023/03/09 05:17:26;;;;;;;10.18;5.72;;;0.80;99.90;;;;;;5073783;28;20044;-72
2023/03/09 05:19:52;;;;;;;10.43;5.75;;;0.80;99.90;;;;;;5069327;28;20044;-73
2023/03/09 05:22:18;;;;;;;9.23;5.63;;;0.70;99.90;;;;;;5072246;28;20040;-73
2023/03/09 05:24:43;;;;;;;10.98;6.00;;;0.80;99.90;;;;;;5057904;28;20045;-73
2023/03/09 05:27:09;;;;;;;10.50;5.88;;;0.70;99.90;;;;;;5049595;28;20044;-72
2023/03/09 05:29:35;;;;;;;9.88;6.00;;;0.70;99.90;;;;;;5061315;28;20147;-72
2023/03/09 05:32:01;;;;;;;11.25;5.82;;;0.70;99.90;;;;;;5062006;28;20094;-72
2023/03/09 05:34:27;;;;;;;9.48;6.07;;;0.70;99.90;;;;;;5060278;28;20051;-72
2023/03/09 05:36:53;;;;;;;10.07;5.60;;;0.70;99.90;;;;;;5059492;28;20044;-72
2023/03/09 05:39:18;;;;;;;11.40;5.72;;;0.70;99.90;;;;;;5070960;28;20097;-72
2023/03/09 05:41:44;;;;;;;10.70;5.68;;;0.80;99.90;;;;;;5062151;28;20053;-72
2023/03/09 05:44:10;;;;;;;10.13;6.40;;;0.80;99.90;;;;;;5070563;28;20071;-72
2023/03/09 05:46:36;;;;;;;10.45;6.93;;;0.80;99.90;;;;;;5059784;28;20052;-72
2023/03/09 05:49:02;;;;;;;11.45;6.13;;;0.80;99.90;;;;;;5078117;28;20045;-72
2023/03/09 05:51:27;;;;;;;10.00;5.93;;;0.80;99.90;;;;;;5055970;28;20045;-72
2023/03/09 05:53:53;;;;;;;11.65;6.53;;;0.80;99.90;;;;;;5060493;28;20092;-72
2023/03/09 05:56:19;;;;;;;12.20;7.32;;;0.80;99.90;;;;;;5057356;28;20098;-72
2023/03/09 05:58:50;;;;;;;10.10;6.47;;;0.80;99.90;;;;;;5064930;28;20084;-73
2023/03/09 06:01:22;;;;;;;12.77;6.90;;;0.80;99.90;;;;;;5074132;28;20064;-72
2023/03/09 06:03:48;;;;;;;12.18;6.90;;;0.80;99.90;;;;;;5057474;28;20096;-72
2023/03/09 06:06:15;;;;;;;11.80;7.32;;;0.80;99.90;;;;;;5044853;28;20052;-72
2023/03/09 06:08:41;;;;;;;10.50;6.28;;;0.90;99.90;;;;;;5071650;28;20501;-72
2023/03/09 06:11:07;;;;;;;11.13;6.47;;;0.80;99.90;;;;;;5077495;28;20044;-72
2023/03/09 06:13:33;;;;;;;12.93;7.00;;;0.80;99.90;;;;;;5072476;28;20055;-71
2023/03/09 06:16:10;;;;;;;12.35;6.85;;;0.80;99.90;;;;;;5072253;28;20135;-72
2023/03/09 06:18:37;;;;;;;12.82;7.43;;;0.80;99.90;;;;;;5057495;28;20134;-71
2023/03/09 06:21:05;;;;;;;12.48;6.93;;;0.80;99.90;;;;;;5066064;28;20049;-71
2023/03/09 06:23:35;;;;;;;12.93;7.30;;;0.80;99.90;;;;;;5057285;28;20053;-72
2023/03/09 06:26:03;;;;;;;11.50;6.85;;;0.90;99.90;;;;;;5057522;28;20048;-72
2023/03/09 06:28:28;;;;;;;11.68;6.88;;;0.90;99.90;;;;;;5057089;28;20475;-71
2023/03/09 06:30:54;;;;;;;12.85;7.40;;;1.00;99.90;;;;;;5063782;28;20048;-72
2023/03/09 06:33:20;;;;;;;12.40;7.00;;;0.90;99.90;;;;;;5058311;28;20053;-73
2023/03/09 06:35:45;;;;;;;11.95;7.85;;;0.90;99.90;;;;;;5058357;28;20083;-72
2023/03/09 06:38:11;;;;;;;13.75;7.30;;;0.90;99.90;;;;;;5042880;28;20048;-72
2023/03/09 06:40:37;;;;;;;13.00;7.32;;;0.90;99.90;;;;;;5064097;28;20055;-72
2023/03/09 06:43:03;;;;;;;11.80;6.85;;;0.90;99.90;;;;;;5057713;28;20048;-72
2023/03/09 06:45:28;;;;;;;14.77;8.20;;;1.10;99.90;;;;;;5058309;28;20049;-72
2023/03/09 06:47:56;;;;;;;12.27;6.78;;;0.90;99.90;;;;;;5067452;28;20481;-72
2023/03/09 06:50:24;;;;;;;11.73;6.95;;;1.20;99.90;;;;;;5061205;28;20429;-72
2023/03/09 06:52:50;;;;;;;12.80;7.03;;;0.90;99.90;;;;;;5066645;28;20052;-73
2023/03/09 06:55:15;;;;;;;12.48;8.10;;;1.00;99.90;;;;;;5061186;28;20056;-73
2023/03/09 06:57:41;;;;;;;12.27;7.22;;;0.90;99.90;;;;;;5071741;28;20067;-72
2023/03/09 07:00:11;;;;;;;14.15;8.40;;;1.00;99.90;;;;;;5055309;28;20105;-72
2023/03/09 07:02:37;;;;;;;12.90;7.22;;;1.00;99.90;;;;;;5056476;28;20131;-72
2023/03/09 07:05:05;;;;;;;11.73;7.05;;;1.00;99.90;;;;;;5060354;28;20049;-72
2023/03/09 07:07:31;;;;;;;12.50;7.78;;;1.60;99.90;;;;;;5064984;28;20490;-73
2023/03/09 07:09:56;;;;;;;15.32;8.07;;;1.00;99.90;;;;;;5060736;28;20033;-72
2023/03/09 07:12:22;;;;;;;13.57;7.40;;;1.10;99.90;;;;;;5056589;28;20041;-73
2023/03/09 07:14:48;;;;;;;13.18;7.55;;;1.10;99.90;;;;;;5074712;28;20068;-72
2023/03/09 07:17:13;;;;;;;12.38;7.55;;;1.20;99.90;;;;;;5073947;28;20087;-73
2023/03/09 07:19:40;;;;;;;13.65;8.73;;;1.20;99.90;;;;;;5042852;28;20139;-72
2023/03/09 07:22:09;;;;;;;13.05;7.78;;;1.30;99.90;;;;;;5071727;28;20424;-72
2023/03/09 07:24:36;;;;;;;13.88;8.10;;;1.30;99.90;;;;;;5063545;28;20052;-72
2023/03/09 07:27:02;;;;;;;15.98;8.52;;;1.30;99.90;;;;;;5070118;28;20052;-72
2023/03/09 07:29:27;;;;;;;15.23;8.77;;;1.40;99.90;;;;;;5063485;28;20037;-72
2023/03/09 07:31:53;;;;;;;14.00;7.22;;;1.40;99.90;;;;;;5074619;28;20051;-73
2023/03/09 07:34:19;;;;;;;13.77;7.20;;;1.40;99.90;;;;;;5063383;28;20049;-72
2023/03/09 07:36:46;;;;;;;12.90;7.88;;;1.70;99.90;;;;;;5068410;28;20072;-72
2023/03/09 07:39:12;;;;;;;14.07;8.70;;;1.50;99.90;;;;;;5071280;28;20056;-72
2023/03/09 07:41:37;;;;;;;14.32;8.00;;;1.60;99.90;;;;;;5075748;28;20052;-73
2023/03/09 07:44:03;;;;;;;13.07;7.63;;;1.50;99.90;;;;;;5058251;28;20128;-72
2023/03/09 07:46:29;;;;;;;12.05;7.38;;;1.50;99.90;;;;;;5038920;28;20048;-72
2023/03/09 07:48:55;;;;;;;13.45;7.78;;;1.60;99.90;;;;;;5066197;28;20685;-73
2023/03/09 07:51:21;;;;;;;14.35;8.10;;;1.60;99.90;;;;;;5053532;28;20064;-72
2023/03/09 07:53:47;;;;;;;12.80;7.82;;;1.70;99.90;;;;;;5056861;28;20124;-72
2023/03/09 07:56:13;;;;;;;12.30;7.50;;;1.70;99.90;;;;;;5053402;28;20076;-72
2023/03/09 07:58:39;;;;;;;14.02;8.07;;;1.80;99.90;;;;;;5050218;28;20074;-72
2023/03/09 08:01:07;;;;;;;12.95;7.63;;;1.80;99.90;;;;;;5067425;28;20052;-72
2023/03/09 08:03:35;;;;;;;15.38;8.38;;;2.00;99.90;;;;;;5059614;28;20045;-73
2023/03/09 08:06:05;;;;;;;16.50;9.07;;;2.00;99.90;;;;;;5060523;28;20411;-72
2023/03/09 08:08:32;;;;;;;14.52;8.77;;;1.80;99.90;;;;;;5061143;28;20053;-72
2023/03/09 08:10:58;;;;;;;13.18;8.10;;;1.80;99.90;;;;;;5060469;28;20048;-72
2023/03/09 08:13:25;;;;;;;14.18;8.23;;;1.80;99.90;;;;;;5053991;28;20045;-72
2023/03/09 08:15:52;;;;;;;15.10;7.78;;;1.80;99.90;;;;;;5063736;28;20063;-72
2023/03/09 08:18:18;;;;;;;15.00;8.50;;;1.90;99.90;;;;;;5058116;28;20057;-72
2023/03/09 08:20:44;;;;;;;15.07;8.82;;;1.90;99.90;;;;;;5066708;28;20032;-72
2023/03/09 08:23:11;;;;;;;14.82;8.10;;;2.00;99.90;;;;;;5073373;28;20553;-71
2023/03/09 08:25:36;;;;;;;12.63;7.50;;;2.00;99.90;;;;;;5068091;28;20045;-73
2023/03/09 08:28:03;;;;;;;15.25;9.25;;;2.20;99.90;;;;;;5056735;28;20105;-72
2023/03/09 08:30:30;;;;;;;15.25;8.38;;;2.20;99.90;;;;;;5066408;28;20040;-72
2023/03/09 08:32:57;;;;;;;13.75;7.78;;;2.20;99.90;;;;;;5062907;28;20159;-72
2023/03/09 08:35:27;;;;;;;13.43;8.05;;;2.30;99.90;;;;;;5052136;28;20045;-72
2023/03/09 08:37:53;;;;;;;15.27;8.40;;;2.40;99.90;;;;;;5060739;28;20132;-72
2023/03/09 08:40:19;;;;;;;14.82;8.55;;;2.30;99.90;;;;;;5062639;28;20084;-71
2023/03/09 08:42:45;;;;;;;15.18;7.90;;;2.40;99.90;;;;;;5056287;28;20049;-71
2023/03/09 08:45:12;;;;;;;13.48;8.73;;;2.50;99.90;;;;;;5058608;28;20129;-71
2023/03/09 08:47:38;;;;;;;13.05;7.90;;;2.40;99.90;;;;;;5057576;28;20523;-72
2023/03/09 08:50:05;;;;;;;15.48;8.50;;;2.50;99.90;;;;;;5057684;28;20411;-72
2023/03/09 08:52:36;;;;;;;13.25;8.80;;;2.40;99.90;;;;;;5056898;28;20059;-72
2023/03/09 08:55:04;;;;;;;14.55;7.72;;;2.50;99.90;;;;;;5069640;28;20546;-73
2023/03/09 08:57:31;;;;;;;14.20;8.10;;;2.50;99.90;;;;;;5058479;28;20049;-72
2023/03/09 08:59:57;;;;;;;14.63;8.30;;;2.50;99.90;;;;;;5041017;28;20059;-72
2023/03/09 09:02:23;;;;;;;13.18;7.97;;;2.50;99.90;;;;;;5063724;28;20128;-72
2023/03/09 09:04:49;;;;;;;14.93;7.85;;;2.50;99.90;;;;;;5060311;28;20041;-72
2023/03/09 09:07:16;;;;;;;19.50;9.05;;;2.50;99.90;;;;;;5059668;28;20048;-71
2023/03/09 09:09:42;;;;;;;13.57;8.10;;;2.50;99.90;;;;;;5056947;28;20098;-71
2023/03/09 09:12:09;;;;;;;15.93;8.95;;;2.50;99.90;;;;;;5040800;28;20091;-72
2023/03/09 09:14:37;;;;;;;13.13;7.75;;;2.50;99.90;;;;;;5058111;28;20516;-71
2023/03/09 09:17:06;;;;;;;13.30;8.80;;;2.50;99.90;;;;;;5057370;28;20048;-72
2023/03/09 09:19:33;;;;;;;14.68;8.52;;;2.50;99.90;;;;;;5059379;28;20117;-72
2023/03/09 09:21:59;;;;;;;13.55;7.50;;;2.60;99.90;;;;;;5055880;28;20053;-72
2023/03/09 09:24:26;;;;;;;12.15;7.60;;;2.50;99.90;;;;;;5059408;28;20603;-74
2023/03/09 09:26:55;;;;;;;14.77;9.00;;;2.60;99.90;;;;;;5066949;28;20539;-71
2023/03/09 09:29:21;;;;;;;16.45;9.40;;;2.70;99.90;;;;;;5058133;28;20040;-71
2023/03/09 09:31:48;;;;;;;13.40;8.63;;;2.70;99.90;;;;;;5067891;28;20097;-71
2023/03/09 09:34:17;;;;;;;14.52;8.38;;;2.80;99.90;;;;;;5040331;28;20051;-71
2023/03/09 09:36:44;;;;;;;13.15;7.85;;;2.90;99.90;;;;;;5059725;28;20049;-71
2023/03/09 09:39:12;;;;;;;16.00;9.10;;;2.90;99.90;;;;;;5071090;28;20044;-74
2023/03/09 09:41:54;;;;;;;14.63;8.38;;;3.00;99.90;;;;;;5058365;28;20048;-71
2023/03/09 09:44:29;;;;;;;14.18;8.45;;;3.10;99.90;;;;;;5074901;28;20040;-72
2023/03/09 09:46:58;;;;;;;14.10;7.93;;;3.10;99.90;;;;;;5060759;28;20088;-72
2023/03/09 09:49:28;;;;;;;13.85;8.48;;;3.10;99.90;;;;;;5059684;28;20056;-72
2023/03/09 09:52:08;;;;;;;13.55;7.82;;;3.00;99.90;;;;;;5053764;28;20064;-72
2023/03/09 09:54:57;;;;;;;13.55;8.32;;;3.00;99.90;;;;;;5056893;28;20052;-72
2023/03/09 09:57:46;;;;;;;12.93;7.63;;;3.10;99.90;;;;;;5058924;28;20045;-72
2023/03/09 10:00:23;;;;;;;14.18;7.53;;;3.10;99.90;;;;;;5054773;28;20059;-72
2023/03/09 10:03:07;;;;;;;13.93;7.82;;;3.20;99.90;;;;;;5058446;28;20048;-72
2023/03/09 10:06:01;;;;;;;13.15;7.72;;;3.20;99.90;;;;;;5073354;28;20041;-71
2023/03/09 10:08:39;;;;;;;12.55;8.40;;;3.30;99.90;;;;;;5070116;28;20119;-72
2023/03/09 10:11:31;;;;;;;12.23;7.78;;;3.30;99.90;;;;;;5057385;28;20150;-71
2023/03/09 10:14:34;;;;;;;12.73;8.15;;;3.30;99.90;;;;;;5062145;28;20049;-71
2023/03/09 10:17:22;;;;;;;13.93;7.32;;;3.30;99.90;;;;;;5054957;28;20044;-72
2023/03/09 10:19:49;;;;;;;13.45;7.80;;;3.30;99.90;;;;;;5058397;28;20671;-71
2023/03/09 10:22:24;;;;;;;15.68;9.20;;;3.30;99.90;;;;;;5055238;28;20056;-71
2023/03/09 10:24:52;;;;;;;16.00;8.95;;;3.30;99.90;;;;;;5068865;28;20040;-71
2023/03/09 10:27:24;;;;;;;12.60;7.90;;;3.30;99.90;;;;;;5064837;28;20052;-70
2023/03/09 10:30:10;;;;;;;14.50;7.97;;;3.40;99.90;;;;;;5060144;28;20407;-73
2023/03/09 10:32:59;;;;;;;11.57;7.30;;;3.20;99.90;;;;;;5060234;28;20044;-71
2023/03/09 10:35:45;;;;;;;12.98;8.02;;;3.20;99.90;;;;;;5061333;28;20079;-71
2023/03/09 10:38:19;;;;;;;13.80;8.00;;;3.20;99.90;;;;;;5065737;28;20083;-71
2023/03/09 10:40:50;;;;;;;11.82;7.10;;;3.20;99.90;;;;;;5060459;28;20044;-71
2023/03/09 10:43:29;;;;;;;13.77;7.68;;;3.10;99.90;;;;;;5053619;28;20045;-71
2023/03/09 10:46:11;;;;;;;12.57;7.43;;;3.10;99.90;;;;;;5047661;28;20049;-71
2023/03/09 10:48:37;;;;;;;14.02;7.47;;;3.10;99.90;;;;;;5055233;28;20246;-71
2023/03/09 10:51:05;;;;;;;13.32;8.10;;;3.10;99.90;;;;;;5053984;28;20479;-71
2023/03/09 10:53:44;;;;;;;14.52;8.20;;;3.10;99.90;;;;;;5060384;28;20106;-71
2023/03/09 10:56:21;;;;;;;13.80;7.53;;;3.10;99.90;;;;;;5057886;28;20634;-71
2023/03/09 10:59:07;;;;;;;14.07;8.27;;;3.20;99.90;;;;;;5055201;28;20057;-71
2023/03/09 11:01:35;;;;;;;13.75;8.27;;;3.20;99.90;;;;;;5040047;28;20139;-71
2023/03/09 11:04:01;;;;;;;13.38;7.55;;;3.30;99.90;;;;;;5060221;28;20140;-71
2023/03/09 11:06:37;;;;;;;13.50;7.93;;;3.30;99.90;;;;;;5060285;28;20051;-71
2023/03/09 11:09:28;;;;;;;13.45;7.45;;;3.30;99.90;;;;;;5060453;28;20068;-71
2023/03/09 11:12:15;;;;;;;13.98;7.35;;;3.30;99.90;;;;;;5060955;28;20079;-72
2023/03/09 11:14:51;;;;;;;15.75;8.07;;;3.30;99.90;;;;;;5056918;28;20519;-71
2023/03/09 11:17:32;;;;;;;13.38;8.55;;;3.40;99.90;;;;;;5054411;28;20065;-71
2023/03/09 11:20:29;;;;;;;13.00;7.72;;;3.40;99.90;;;;;;5054358;28;20059;-72
2023/03/09 11:23:02;;;;;;;13.00;7.67;;;3.50;99.90;;;;;;5054211;28;20061;-71
2023/03/09 11:25:46;;;;;;;12.77;7.85;;;3.60;99.90;;;;;;5036945;28;20100;-72
2023/03/09 11:28:19;;;;;;;15.10;8.15;;;3.60;99.90;;;;;;5054786;28;20049;-72
2023/03/09 11:30:47;;;;;;;13.50;8.00;;;3.60;99.90;;;;;;5037833;28;20841;-72
2023/03/09 11:33:16;;;;;;;14.85;9.00;;;3.60;99.90;;;;;;5058372;28;20517;-71
2023/03/09 11:35:44;;;;;;;15.15;9.38;;;3.60;99.90;;;;;;5053771;28;20041;-71
2023/03/09 11:38:14;;;;;;;14.40;8.07;;;3.60;99.90;;;;;;5046315;28;20040;-71
2023/03/09 11:40:41;;;;;;;13.77;7.93;;;3.70;99.90;;;;;;5068130;28;20059;-71
2023/03/09 11:43:24;;;;;;;15.07;8.27;;;3.80;99.90;;;;;;5055270;28;20053;-71
2023/03/09 11:46:01;;;;;;;13.48;8.02;;;3.70;99.90;;;;;;5054719;28;20056;-71
2023/03/09 11:48:52;;;;;;;15.95;8.88;;;3.70;99.90;;;;;;5054314;28;20048;-71
2023/03/09 11:51:29;;;;;;;15.13;8.75;;;3.80;99.90;;;;;;5084522;28;20048;-71
2023/03/09 11:54:20;;;;;;;15.50;8.38;;;3.80;99.90;;;;;;5054959;28;20091;-72
2023/03/09 11:56:48;;;;;;;13.93;8.38;;;3.80;99.90;;;;;;5052828;28;20041;-71
2023/03/09 11:59:16;;;;;;;13.48;8.15;;;3.80;99.90;;;;;;5053981;28;20073;-72
2023/03/09 12:02:10;;;;;;;13.63;8.30;;;3.90;99.90;;;;;;5054107;28;20047;-71
2023/03/09 12:04:36;;;;;;;13.80;8.15;;;4.00;99.90;;;;;;5058442;28;20060;-72
2023/03/09 12:07:13;;;;;;;13.43;7.35;;;4.10;99.90;;;;;;5054635;28;20060;-71
2023/03/09 12:09:45;;;;;;;15.20;8.52;;;4.10;99.90;;;;;;5057894;28;20041;-72
2023/03/09 12:12:16;;;;;;;12.70;7.90;;;4.10;99.90;;;;;;5054368;28;20053;-72
2023/03/09 12:14:49;;;;;;;13.55;8.30;;;4.20;99.90;;;;;;5046266;28;20074;-71
2023/03/09 12:17:18;;;;;;;14.13;8.10;;;4.20;99.90;;;;;;5057162;28;20074;-71
2023/03/09 12:19:52;;;;;;;17.58;8.13;;;4.20;99.90;;;;;;5056562;28;20040;-72
2023/03/09 12:22:29;;;;;;;13.40;8.40;;;4.20;99.90;;;;;;5063805;28;20057;-71
2023/03/09 12:25:02;;;;;;;;;;;4.30;99.90;;;;;;5060360;28;20056;-72
2023/03/09 12:27:31;;;;;;;15.82;7.88;;;4.30;99.90;;;;;;5054194;28;19928;-71
2023/03/09 12:29:59;;;;;;;13.45;7.47;;;4.20;99.90;;;;;;5053269;28;20574;-72
2023/03/09 12:32:25;;;;;;;11.65;7.53;;;4.20;99.90;;;;;;5069460;28;20063;-71
2023/03/09 12:34:56;;;;;;;12.65;8.02;;;4.20;99.90;;;;;;5053433;28;20100;-71
2023/03/09 12:37:31;;;;;;;12.57;7.68;;;4.20;99.90;;;;;;5055647;28;20129;-72
2023/03/09 12:40:25;;;;;;;11.73;7.03;;;4.20;99.90;;;;;;5074514;28;20045;-71
2023/03/09 12:42:53;;;;;;;12.90;7.80;;;4.20;99.90;;;;;;5059460;28;20150;-72
2023/03/09 12:45:19;;;;;;;14.65;7.97;;;4.10;99.90;;;;;;5072637;28;20049;-72
2023/03/09 12:47:59;;;;;;;12.18;7.22;;;4.10;99.90;;;;;;5061266;28;20071;-72
2023/03/09 12:50:45;;;;;;;11.90;7.43;;;4.10;99.90;;;;;;5055798;28;20607;-71
2023/03/09 12:53:12;;;;;;;14.63;8.10;;;4.00;99.90;;;;;;5052979;28;20055;-71
2023/03/09 12:55:37;;;;;;;15.02;8.95;;;4.00;99.90;;;;;;5051961;28;20077;-71
2023/03/09 12:58:21;;;;;;;12.93;7.82;;;4.00;99.90;;;;;;5054800;28;20096;-71
2023/03/09 13:01:12;;;;;;;13.55;8.25;;;4.10;99.90;;;;;;5068848;28;20044;-72
2023/03/09 13:03:46;;;;;;;13.68;7.80;;;4.10;99.90;;;;;;5054697;28;20053;-72